TVF783R LFPO-GMMX
Flight info
| Callsign | TVF783R |
|---|---|
| Flight time | 3h 8m |
| Altitude | 35000 |
| Route | LGL UT176 TERPO UN872 ERIGA DCT FUJTI DCT BAKUP DCT BATAX DCT BIRBA DCT ALAGU DCT MARIM DCT AMSEL UR722 SAK UW900 TIXAL UG850 OBOGA |
| Aircraft | B738/M-SDFGHIJ1RWXY/LB1 |
Departure
| Time | 2026-05-06 08:29 |
|---|---|
| Airport | Paris-Orly Airport (LFPO) |
Arrival
| Time | 2026-05-06 11:37 |
|---|---|
| Airport | Marrakesh Menara Airport (GMMX) |
| Time | Latitude | Longitude | Altitude | Speed | Heading |
|---|---|---|---|---|---|
| 2026-05-06 08:06 | 48.72546 | 2.36025 | 293 ft | 0 kts | 13° |
| 2026-05-06 08:22 | 48.72524 | 2.36017 | 297 ft | 4 kts | 13° |
| 2026-05-06 08:22 | 48.72503 | 2.36010 | 295 ft | 4 kts | 6° |
| 2026-05-06 08:22 | 48.72479 | 2.36013 | 294 ft | 4 kts | 317° |
| 2026-05-06 08:23 | 48.72473 | 2.36041 | 293 ft | 4 kts | 259° |
| 2026-05-06 08:23 | 48.72476 | 2.36062 | 295 ft | 1 kts | 257° |
| 2026-05-06 08:25 | 48.72471 | 2.36019 | 292 ft | 8 kts | 264° |
| 2026-05-06 08:25 | 48.72470 | 2.35933 | 290 ft | 9 kts | 274° |
| 2026-05-06 08:25 | 48.72477 | 2.35836 | 295 ft | 9 kts | 277° |
| 2026-05-06 08:25 | 48.72475 | 2.35742 | 290 ft | 9 kts | 256° |
| 2026-05-06 08:26 | 48.72446 | 2.35637 | 292 ft | 13 kts | 224° |
| 2026-05-06 08:26 | 48.72359 | 2.35638 | 289 ft | 13 kts | 175° |
| 2026-05-06 08:26 | 48.72274 | 2.35607 | 291 ft | 13 kts | 197° |
| 2026-05-06 08:26 | 48.72189 | 2.35617 | 290 ft | 12 kts | 166° |
| 2026-05-06 08:27 | 48.72107 | 2.35650 | 290 ft | 12 kts | 159° |
| 2026-05-06 08:27 | 48.72037 | 2.35737 | 290 ft | 15 kts | 122° |
| 2026-05-06 08:27 | 48.71973 | 2.35872 | 293 ft | 13 kts | 145° |
| 2026-05-06 08:27 | 48.71957 | 2.35944 | 291 ft | 0 kts | 75° |
| 2026-05-06 08:28 | 48.71957 | 2.35945 | 291 ft | 1 kts | 75° |
| 2026-05-06 08:28 | 48.72020 | 2.36286 | 293 ft | 70 kts | 74° |
| 2026-05-06 08:28 | 48.72212 | 2.37327 | 291 ft | 134 kts | 74° |
| 2026-05-06 08:28 | 48.72505 | 2.38932 | 434 ft | 173 kts | 73° |
| 2026-05-06 08:29 | 48.72801 | 2.40697 | 1255 ft | 174 kts | 70° |
| 2026-05-06 08:29 | 48.73122 | 2.42437 | 2175 ft | 168 kts | 68° |
| 2026-05-06 08:29 | 48.73451 | 2.44145 | 2874 ft | 173 kts | 68° |
| 2026-05-06 08:29 | 48.73804 | 2.45908 | 3545 ft | 178 kts | 69° |
| 2026-05-06 08:30 | 48.74104 | 2.47852 | 3831 ft | 206 kts | 81° |
| 2026-05-06 08:30 | 48.74162 | 2.50131 | 4014 ft | 227 kts | 84° |
| 2026-05-06 08:30 | 48.74236 | 2.52600 | 4346 ft | 240 kts | 84° |
| 2026-05-06 08:30 | 48.74313 | 2.55233 | 4580 ft | 263 kts | 87° |
| 2026-05-06 08:31 | 48.73841 | 2.57975 | 5204 ft | 278 kts | 118° |
| 2026-05-06 08:31 | 48.72492 | 2.60060 | 6084 ft | 282 kts | 147° |
| 2026-05-06 08:31 | 48.70622 | 2.61011 | 6827 ft | 289 kts | 177° |
| 2026-05-06 08:31 | 48.68663 | 2.60587 | 7707 ft | 284 kts | 205° |
| 2026-05-06 08:32 | 48.67104 | 2.58850 | 8561 ft | 281 kts | 234° |
| 2026-05-06 08:32 | 48.66341 | 2.56176 | 9377 ft | 279 kts | 261° |
| 2026-05-06 08:32 | 48.66253 | 2.53236 | 10120 ft | 282 kts | 270° |
| 2026-05-06 08:32 | 48.66327 | 2.50190 | 10423 ft | 301 kts | 272° |
| 2026-05-06 08:33 | 48.66411 | 2.46915 | 10614 ft | 321 kts | 271° |
| 2026-05-06 08:33 | 48.66478 | 2.43433 | 10817 ft | 340 kts | 270° |
| 2026-05-06 08:33 | 48.66382 | 2.39803 | 11205 ft | 351 kts | 258° |
| 2026-05-06 08:33 | 48.65522 | 2.36347 | 11900 ft | 353 kts | 246° |
| 2026-05-06 08:34 | 48.64540 | 2.32926 | 12611 ft | 355 kts | 249° |
| 2026-05-06 08:34 | 48.62906 | 2.25874 | 14007 ft | 360 kts | 265° |
| 2026-05-06 08:34 | 48.63027 | 2.22085 | 14625 ft | 361 kts | 278° |
| 2026-05-06 08:35 | 48.63407 | 2.18315 | 15185 ft | 367 kts | 279° |
| 2026-05-06 08:35 | 48.63824 | 2.14455 | 15670 ft | 374 kts | 280° |
| 2026-05-06 08:35 | 48.64244 | 2.10576 | 16385 ft | 374 kts | 280° |
| 2026-05-06 08:35 | 48.64635 | 2.06899 | 16918 ft | 379 kts | 280° |
| 2026-05-06 08:36 | 48.65045 | 2.02946 | 17488 ft | 383 kts | 279° |
| 2026-05-06 08:36 | 48.65450 | 1.98979 | 17886 ft | 390 kts | 279° |
| 2026-05-06 08:36 | 48.65866 | 1.94840 | 18387 ft | 395 kts | 279° |
| 2026-05-06 08:36 | 48.66271 | 1.90778 | 18871 ft | 397 kts | 279° |
| 2026-05-06 08:37 | 48.66681 | 1.86629 | 19298 ft | 401 kts | 279° |
| 2026-05-06 08:37 | 48.67095 | 1.82431 | 19735 ft | 405 kts | 280° |
| 2026-05-06 08:37 | 48.67510 | 1.78197 | 20173 ft | 409 kts | 280° |
| 2026-05-06 08:37 | 48.67929 | 1.73914 | 20570 ft | 413 kts | 280° |
| 2026-05-06 08:38 | 48.68349 | 1.69608 | 21097 ft | 414 kts | 279° |
| 2026-05-06 08:38 | 48.68769 | 1.65282 | 21567 ft | 417 kts | 279° |
| 2026-05-06 08:38 | 48.69190 | 1.60928 | 21993 ft | 420 kts | 279° |
| 2026-05-06 08:38 | 48.69613 | 1.56539 | 22420 ft | 423 kts | 279° |
| 2026-05-06 08:39 | 48.70037 | 1.52121 | 22843 ft | 426 kts | 279° |
| 2026-05-06 08:39 | 48.70463 | 1.47665 | 23245 ft | 429 kts | 280° |
| 2026-05-06 08:39 | 48.70890 | 1.43178 | 23632 ft | 432 kts | 279° |
| 2026-05-06 08:39 | 48.71318 | 1.38664 | 24004 ft | 434 kts | 279° |
| 2026-05-06 08:40 | 48.71746 | 1.34141 | 24375 ft | 435 kts | 279° |
| 2026-05-06 08:40 | 48.72173 | 1.29593 | 24714 ft | 437 kts | 279° |
| 2026-05-06 08:40 | 48.72600 | 1.25034 | 25141 ft | 437 kts | 279° |
| 2026-05-06 08:40 | 48.73026 | 1.20472 | 25493 ft | 439 kts | 279° |
| 2026-05-06 08:41 | 48.73452 | 1.15880 | 25781 ft | 442 kts | 279° |
| 2026-05-06 08:41 | 48.73880 | 1.11259 | 26106 ft | 444 kts | 279° |
| 2026-05-06 08:41 | 48.74306 | 1.06621 | 26411 ft | 446 kts | 279° |
| 2026-05-06 08:41 | 48.74734 | 1.01951 | 26703 ft | 448 kts | 279° |
| 2026-05-06 08:42 | 48.75161 | 0.97265 | 26987 ft | 451 kts | 279° |
| 2026-05-06 08:42 | 48.75590 | 0.92546 | 27275 ft | 453 kts | 279° |
| 2026-05-06 08:42 | 48.76017 | 0.87811 | 27564 ft | 455 kts | 279° |
| 2026-05-06 08:42 | 48.76445 | 0.83054 | 27852 ft | 456 kts | 279° |
| 2026-05-06 08:43 | 48.76873 | 0.78284 | 28170 ft | 457 kts | 279° |
| 2026-05-06 08:43 | 48.77298 | 0.73505 | 28450 ft | 459 kts | 279° |
| 2026-05-06 08:43 | 48.77724 | 0.68695 | 28694 ft | 461 kts | 279° |
| 2026-05-06 08:43 | 48.78149 | 0.63879 | 29040 ft | 461 kts | 279° |
| 2026-05-06 08:44 | 48.78553 | 0.59064 | 29459 ft | 460 kts | 275° |
| 2026-05-06 08:44 | 48.78331 | 0.54230 | 29736 ft | 464 kts | 256° |
| 2026-05-06 08:44 | 48.77150 | 0.49679 | 30059 ft | 466 kts | 239° |
| 2026-05-06 08:44 | 48.75224 | 0.45753 | 30467 ft | 463 kts | 230° |
| 2026-05-06 08:45 | 48.73110 | 0.42087 | 30789 ft | 462 kts | 229° |
| 2026-05-06 08:45 | 48.70977 | 0.38441 | 31058 ft | 462 kts | 229° |
| 2026-05-06 08:45 | 48.68858 | 0.34794 | 31388 ft | 460 kts | 230° |
| 2026-05-06 08:45 | 48.66788 | 0.31188 | 31659 ft | 460 kts | 230° |
| 2026-05-06 08:46 | 48.64701 | 0.27518 | 31903 ft | 461 kts | 230° |
| 2026-05-06 08:46 | 48.62612 | 0.23829 | 32078 ft | 463 kts | 230° |
| 2026-05-06 08:46 | 48.60519 | 0.20133 | 32284 ft | 464 kts | 230° |
| 2026-05-06 08:46 | 48.58428 | 0.16453 | 32709 ft | 459 kts | 230° |
| 2026-05-06 08:47 | 48.56352 | 0.12792 | 32999 ft | 459 kts | 231° |
| 2026-05-06 08:47 | 48.54281 | 0.09114 | 33162 ft | 461 kts | 231° |
| 2026-05-06 08:47 | 48.52211 | 0.05428 | 33446 ft | 460 kts | 231° |
| 2026-05-06 08:47 | 48.50148 | 0.01757 | 33723 ft | 459 kts | 231° |
| 2026-05-06 08:48 | 48.48080 | -0.01915 | 33955 ft | 459 kts | 230° |
| 2026-05-06 08:48 | 48.46026 | -0.05556 | 34293 ft | 455 kts | 230° |
| 2026-05-06 08:48 | 48.43974 | -0.09185 | 34458 ft | 455 kts | 230° |
| 2026-05-06 08:48 | 48.41918 | -0.12814 | 34627 ft | 456 kts | 230° |
| 2026-05-06 08:49 | 48.39860 | -0.16445 | 34757 ft | 457 kts | 231° |
| 2026-05-06 08:49 | 48.37795 | -0.20085 | 34911 ft | 457 kts | 230° |
| 2026-05-06 08:49 | 48.35733 | -0.23710 | 35134 ft | 456 kts | 231° |
| 2026-05-06 08:49 | 48.33667 | -0.27323 | 35295 ft | 456 kts | 230° |
| 2026-05-06 08:50 | 48.31590 | -0.30918 | 35486 ft | 455 kts | 230° |
| 2026-05-06 08:50 | 48.29516 | -0.34490 | 35721 ft | 453 kts | 229° |
| 2026-05-06 08:50 | 48.27441 | -0.38058 | 35897 ft | 453 kts | 229° |
| 2026-05-06 08:50 | 48.25388 | -0.41585 | 36088 ft | 452 kts | 229° |
| 2026-05-06 08:51 | 48.23310 | -0.45151 | 36296 ft | 450 kts | 230° |
| 2026-05-06 08:51 | 48.19202 | -0.52195 | 36479 ft | 453 kts | 229° |
| 2026-05-06 08:51 | 48.17128 | -0.55748 | 36673 ft | 452 kts | 229° |
| 2026-05-06 08:52 | 48.15063 | -0.59283 | 36867 ft | 450 kts | 229° |
| 2026-05-06 08:52 | 48.10951 | -0.66306 | 36940 ft | 450 kts | 229° |
| 2026-05-06 08:53 | 48.06805 | -0.73364 | 36951 ft | 452 kts | 229° |
| 2026-05-06 08:53 | 48.02647 | -0.80426 | 36940 ft | 454 kts | 229° |
| 2026-05-06 08:54 | 47.98483 | -0.87478 | 36930 ft | 455 kts | 229° |
| 2026-05-06 08:54 | 47.94322 | -0.94509 | 36939 ft | 455 kts | 229° |
| 2026-05-06 08:55 | 47.90240 | -1.01385 | 36941 ft | 454 kts | 229° |
| 2026-05-06 08:55 | 47.86079 | -1.08375 | 36938 ft | 454 kts | 229° |
| 2026-05-06 08:56 | 47.81888 | -1.15399 | 36936 ft | 453 kts | 229° |
| 2026-05-06 08:56 | 47.77706 | -1.22394 | 36930 ft | 452 kts | 229° |
| 2026-05-06 08:57 | 47.73524 | -1.29367 | 36938 ft | 451 kts | 229° |
| 2026-05-06 08:57 | 47.69414 | -1.36200 | 36942 ft | 451 kts | 229° |
| 2026-05-06 08:58 | 47.65245 | -1.43118 | 36937 ft | 450 kts | 229° |
| 2026-05-06 08:58 | 47.61067 | -1.50035 | 36939 ft | 450 kts | 229° |
| 2026-05-06 08:59 | 47.56885 | -1.56931 | 36946 ft | 450 kts | 229° |
| 2026-05-06 08:59 | 47.52846 | -1.63568 | 36944 ft | 451 kts | 228° |
| 2026-05-06 09:00 | 47.48646 | -1.70459 | 36940 ft | 451 kts | 229° |
| 2026-05-06 09:00 | 47.44487 | -1.77271 | 36946 ft | 451 kts | 228° |
| 2026-05-06 09:01 | 47.40299 | -1.84108 | 36947 ft | 452 kts | 229° |
| 2026-05-06 09:01 | 47.36116 | -1.90895 | 36938 ft | 453 kts | 226° |
| 2026-05-06 09:02 | 47.31148 | -1.96486 | 36954 ft | 454 kts | 212° |
| 2026-05-06 09:02 | 47.25728 | -2.01213 | 36948 ft | 455 kts | 211° |
| 2026-05-06 09:03 | 47.20280 | -2.05979 | 36949 ft | 457 kts | 211° |
| 2026-05-06 09:03 | 47.14825 | -2.10814 | 36930 ft | 458 kts | 212° |
| 2026-05-06 09:04 | 47.09375 | -2.15660 | 36941 ft | 458 kts | 212° |
| 2026-05-06 09:04 | 47.03918 | -2.20501 | 36950 ft | 458 kts | 212° |
| 2026-05-06 09:05 | 46.98471 | -2.25313 | 36945 ft | 456 kts | 212° |
| 2026-05-06 09:05 | 46.93047 | -2.30098 | 36945 ft | 455 kts | 212° |
| 2026-05-06 09:06 | 46.87639 | -2.34859 | 36956 ft | 453 kts | 212° |
| 2026-05-06 09:06 | 46.82240 | -2.39600 | 36965 ft | 453 kts | 212° |
| 2026-05-06 09:07 | 46.76865 | -2.44314 | 36941 ft | 454 kts | 212° |
| 2026-05-06 09:07 | 46.72367 | -2.48250 | 36949 ft | 453 kts | 212° |
| 2026-05-06 09:08 | 46.66051 | -2.53768 | 36963 ft | 453 kts | 212° |
| 2026-05-06 09:08 | 46.61563 | -2.57679 | 36958 ft | 453 kts | 211° |
| 2026-05-06 09:09 | 46.56153 | -2.62384 | 36960 ft | 453 kts | 212° |
| 2026-05-06 09:09 | 46.50740 | -2.67082 | 36968 ft | 454 kts | 211° |
| 2026-05-06 09:10 | 46.45309 | -2.71782 | 36967 ft | 454 kts | 212° |
| 2026-05-06 09:10 | 46.39871 | -2.76479 | 36970 ft | 455 kts | 212° |
| 2026-05-06 09:11 | 46.34427 | -2.81173 | 36954 ft | 456 kts | 212° |
| 2026-05-06 09:11 | 46.28966 | -2.85868 | 36973 ft | 457 kts | 212° |
| 2026-05-06 09:12 | 46.23508 | -2.90568 | 36966 ft | 457 kts | 212° |
| 2026-05-06 09:12 | 46.18062 | -2.95313 | 36971 ft | 457 kts | 212° |
| 2026-05-06 09:13 | 46.12616 | -3.00057 | 36957 ft | 457 kts | 213° |
| 2026-05-06 09:13 | 46.07208 | -3.04753 | 36976 ft | 457 kts | 213° |
| 2026-05-06 09:14 | 46.01731 | -3.09495 | 36972 ft | 456 kts | 212° |
| 2026-05-06 09:14 | 45.96300 | -3.14185 | 36977 ft | 455 kts | 211° |
| 2026-05-06 09:15 | 45.90873 | -3.18858 | 36966 ft | 455 kts | 213° |
| 2026-05-06 09:15 | 45.85486 | -3.23484 | 36981 ft | 454 kts | 212° |
| 2026-05-06 09:16 | 45.80073 | -3.28128 | 36977 ft | 454 kts | 213° |
| 2026-05-06 09:16 | 45.74653 | -3.32764 | 36984 ft | 453 kts | 213° |
| 2026-05-06 09:17 | 45.69232 | -3.37387 | 36976 ft | 453 kts | 214° |
| 2026-05-06 09:17 | 45.63812 | -3.41998 | 36995 ft | 453 kts | 213° |
| 2026-05-06 09:18 | 45.58387 | -3.46609 | 36996 ft | 454 kts | 214° |
| 2026-05-06 09:18 | 45.52953 | -3.51213 | 36978 ft | 455 kts | 212° |
| 2026-05-06 09:19 | 45.47512 | -3.55814 | 36990 ft | 455 kts | 213° |
| 2026-05-06 09:19 | 45.42066 | -3.60407 | 36998 ft | 455 kts | 212° |
| 2026-05-06 09:20 | 45.36619 | -3.64994 | 36996 ft | 455 kts | 213° |
| 2026-05-06 09:20 | 45.31169 | -3.69572 | 36997 ft | 455 kts | 213° |
| 2026-05-06 09:21 | 45.25714 | -3.74141 | 37002 ft | 455 kts | 213° |
| 2026-05-06 09:21 | 45.20295 | -3.78673 | 37000 ft | 455 kts | 212° |
| 2026-05-06 09:22 | 45.14845 | -3.83218 | 36997 ft | 454 kts | 212° |
| 2026-05-06 09:22 | 45.09399 | -3.87749 | 37002 ft | 454 kts | 212° |
| 2026-05-06 09:23 | 45.03962 | -3.92265 | 37005 ft | 453 kts | 212° |
| 2026-05-06 09:23 | 44.98528 | -3.96769 | 37007 ft | 452 kts | 212° |
| 2026-05-06 09:24 | 44.93096 | -4.01261 | 37008 ft | 452 kts | 212° |
| 2026-05-06 09:24 | 44.87676 | -4.05732 | 37009 ft | 451 kts | 212° |
| 2026-05-06 09:25 | 44.82256 | -4.10193 | 37009 ft | 451 kts | 212° |
| 2026-05-06 09:25 | 44.76846 | -4.14635 | 37012 ft | 450 kts | 212° |
| 2026-05-06 09:26 | 44.71442 | -4.19065 | 37011 ft | 449 kts | 212° |
| 2026-05-06 09:26 | 44.66043 | -4.23482 | 37016 ft | 449 kts | 212° |
| 2026-05-06 09:27 | 44.60646 | -4.27886 | 37016 ft | 449 kts | 211° |
| 2026-05-06 09:27 | 44.55249 | -4.32279 | 37017 ft | 448 kts | 212° |
| 2026-05-06 09:28 | 44.49854 | -4.36665 | 37023 ft | 448 kts | 212° |
| 2026-05-06 09:28 | 44.44460 | -4.41040 | 37010 ft | 448 kts | 212° |
| 2026-05-06 09:29 | 44.39075 | -4.45429 | 37012 ft | 448 kts | 212° |
| 2026-05-06 09:29 | 44.33754 | -4.49934 | 37021 ft | 447 kts | 213° |
| 2026-05-06 09:30 | 44.28479 | -4.54430 | 37020 ft | 447 kts | 213° |
| 2026-05-06 09:30 | 44.23132 | -4.58963 | 37012 ft | 447 kts | 213° |
| 2026-05-06 09:31 | 44.17856 | -4.63411 | 37026 ft | 446 kts | 213° |
| 2026-05-06 09:31 | 44.12507 | -4.67907 | 37022 ft | 446 kts | 213° |
| 2026-05-06 09:32 | 44.07189 | -4.72367 | 37027 ft | 446 kts | 213° |
| 2026-05-06 09:32 | 44.01907 | -4.76788 | 37029 ft | 446 kts | 213° |
| 2026-05-06 09:33 | 43.96589 | -4.81230 | 37047 ft | 446 kts | 213° |
| 2026-05-06 09:33 | 43.91264 | -4.85668 | 37033 ft | 446 kts | 213° |
| 2026-05-06 09:34 | 43.85938 | -4.90098 | 37036 ft | 446 kts | 213° |
| 2026-05-06 09:34 | 43.80615 | -4.94516 | 37044 ft | 446 kts | 213° |
| 2026-05-06 09:35 | 43.75288 | -4.98927 | 37036 ft | 446 kts | 213° |
| 2026-05-06 09:35 | 43.69958 | -5.03333 | 37039 ft | 446 kts | 213° |
| 2026-05-06 09:36 | 43.64626 | -5.07730 | 37041 ft | 446 kts | 213° |
| 2026-05-06 09:36 | 43.59294 | -5.12119 | 37044 ft | 447 kts | 213° |
| 2026-05-06 09:37 | 43.53952 | -5.16506 | 37040 ft | 447 kts | 213° |
| 2026-05-06 09:37 | 43.48610 | -5.20885 | 37044 ft | 447 kts | 213° |
| 2026-05-06 09:38 | 43.43266 | -5.25256 | 37041 ft | 447 kts | 213° |
| 2026-05-06 09:38 | 43.37961 | -5.29585 | 37036 ft | 446 kts | 213° |
| 2026-05-06 09:39 | 43.32620 | -5.33936 | 37035 ft | 446 kts | 213° |
| 2026-05-06 09:39 | 43.27283 | -5.38274 | 37025 ft | 446 kts | 213° |
| 2026-05-06 09:40 | 43.21944 | -5.42604 | 37033 ft | 445 kts | 213° |
| 2026-05-06 09:40 | 43.13943 | -5.49078 | 37029 ft | 445 kts | 213° |
| 2026-05-06 09:41 | 43.08612 | -5.53380 | 37007 ft | 445 kts | 213° |
| 2026-05-06 09:41 | 43.03288 | -5.57667 | 37010 ft | 444 kts | 213° |
| 2026-05-06 09:42 | 42.97968 | -5.61943 | 37005 ft | 443 kts | 213° |
| 2026-05-06 09:42 | 42.92659 | -5.66202 | 37012 ft | 442 kts | 213° |
| 2026-05-06 09:43 | 42.87355 | -5.70448 | 36994 ft | 441 kts | 213° |
| 2026-05-06 09:43 | 42.82069 | -5.74670 | 37014 ft | 440 kts | 213° |
| 2026-05-06 09:44 | 42.76795 | -5.78875 | 37013 ft | 439 kts | 213° |
| 2026-05-06 09:44 | 42.71526 | -5.83068 | 37016 ft | 438 kts | 213° |
| 2026-05-06 09:45 | 42.66265 | -5.87246 | 37023 ft | 438 kts | 213° |
| 2026-05-06 09:45 | 42.61004 | -5.91416 | 37016 ft | 438 kts | 213° |
| 2026-05-06 09:46 | 42.55739 | -5.95581 | 37017 ft | 438 kts | 213° |
| 2026-05-06 09:46 | 42.50468 | -5.99742 | 37014 ft | 439 kts | 213° |
| 2026-05-06 09:47 | 42.45225 | -6.03873 | 37002 ft | 439 kts | 213° |
| 2026-05-06 09:47 | 42.39941 | -6.08028 | 37011 ft | 439 kts | 213° |
| 2026-05-06 09:48 | 42.34649 | -6.12181 | 37013 ft | 440 kts | 213° |
| 2026-05-06 09:48 | 42.29351 | -6.16331 | 37015 ft | 440 kts | 213° |
| 2026-05-06 09:49 | 42.24046 | -6.20478 | 37018 ft | 441 kts | 213° |
| 2026-05-06 09:49 | 42.18743 | -6.24616 | 37011 ft | 440 kts | 213° |
| 2026-05-06 09:50 | 42.13436 | -6.28748 | 37021 ft | 440 kts | 213° |
| 2026-05-06 09:50 | 42.08128 | -6.32873 | 37011 ft | 440 kts | 213° |
| 2026-05-06 09:51 | 42.02821 | -6.36989 | 37012 ft | 440 kts | 213° |
| 2026-05-06 09:51 | 41.97523 | -6.41091 | 37019 ft | 439 kts | 213° |
| 2026-05-06 09:52 | 41.92227 | -6.45183 | 37012 ft | 439 kts | 213° |
| 2026-05-06 09:52 | 41.86937 | -6.49263 | 37015 ft | 438 kts | 212° |
| 2026-05-06 09:53 | 41.81653 | -6.53330 | 37021 ft | 438 kts | 212° |
| 2026-05-06 09:53 | 41.76374 | -6.57388 | 37019 ft | 437 kts | 212° |
| 2026-05-06 09:54 | 41.71090 | -6.61401 | 37015 ft | 437 kts | 209° |
| 2026-05-06 09:54 | 41.65363 | -6.64048 | 37036 ft | 441 kts | 198° |
| 2026-05-06 09:55 | 41.59420 | -6.66086 | 37026 ft | 441 kts | 197° |
| 2026-05-06 09:55 | 41.53483 | -6.68132 | 37011 ft | 440 kts | 198° |
| 2026-05-06 09:56 | 41.47563 | -6.70211 | 37027 ft | 440 kts | 198° |
| 2026-05-06 09:56 | 41.41644 | -6.72304 | 37024 ft | 440 kts | 198° |
| 2026-05-06 09:57 | 41.36683 | -6.74060 | 37026 ft | 440 kts | 198° |
| 2026-05-06 09:57 | 41.30800 | -6.76137 | 37019 ft | 440 kts | 198° |
| 2026-05-06 09:58 | 41.24874 | -6.78226 | 37023 ft | 441 kts | 198° |
| 2026-05-06 09:58 | 41.18946 | -6.80310 | 37027 ft | 441 kts | 198° |
| 2026-05-06 09:59 | 41.13014 | -6.82392 | 37017 ft | 441 kts | 198° |
| 2026-05-06 09:59 | 41.07081 | -6.84470 | 37021 ft | 441 kts | 198° |
| 2026-05-06 10:00 | 41.01149 | -6.86544 | 37026 ft | 441 kts | 198° |
| 2026-05-06 10:00 | 40.95221 | -6.88612 | 37022 ft | 440 kts | 198° |
| 2026-05-06 10:01 | 40.89302 | -6.90674 | 37019 ft | 439 kts | 198° |
| 2026-05-06 10:01 | 40.83392 | -6.92729 | 37016 ft | 439 kts | 198° |
| 2026-05-06 10:02 | 40.77487 | -6.94778 | 37019 ft | 438 kts | 198° |
| 2026-05-06 10:02 | 40.71590 | -6.96821 | 37022 ft | 438 kts | 198° |
| 2026-05-06 10:03 | 40.65698 | -6.98859 | 37014 ft | 437 kts | 198° |
| 2026-05-06 10:03 | 40.59814 | -7.00889 | 37021 ft | 437 kts | 198° |
| 2026-05-06 10:04 | 40.53934 | -7.02915 | 37019 ft | 437 kts | 198° |
| 2026-05-06 10:04 | 40.48059 | -7.04936 | 37016 ft | 436 kts | 198° |
| 2026-05-06 10:05 | 40.42232 | -7.06936 | 37016 ft | 436 kts | 198° |
| 2026-05-06 10:05 | 40.36369 | -7.08945 | 37010 ft | 435 kts | 198° |
| 2026-05-06 10:06 | 40.30510 | -7.10949 | 37015 ft | 435 kts | 198° |
| 2026-05-06 10:06 | 40.24650 | -7.12950 | 36997 ft | 435 kts | 198° |
| 2026-05-06 10:07 | 40.18788 | -7.14949 | 36993 ft | 436 kts | 198° |
| 2026-05-06 10:07 | 40.12921 | -7.16945 | 37001 ft | 436 kts | 198° |
| 2026-05-06 10:08 | 40.07052 | -7.18938 | 37012 ft | 436 kts | 198° |
| 2026-05-06 10:08 | 40.01181 | -7.20928 | 37002 ft | 436 kts | 198° |
| 2026-05-06 10:09 | 39.95313 | -7.22914 | 36995 ft | 436 kts | 198° |
| 2026-05-06 10:09 | 39.89449 | -7.24895 | 37009 ft | 435 kts | 198° |
| 2026-05-06 10:10 | 39.83584 | -7.26873 | 36999 ft | 435 kts | 198° |
| 2026-05-06 10:10 | 39.77715 | -7.28848 | 36986 ft | 435 kts | 198° |
| 2026-05-06 10:11 | 39.71856 | -7.30817 | 37007 ft | 435 kts | 198° |
| 2026-05-06 10:11 | 39.65994 | -7.32784 | 37004 ft | 435 kts | 198° |
| 2026-05-06 10:12 | 39.60130 | -7.34747 | 37005 ft | 435 kts | 198° |
| 2026-05-06 10:12 | 39.54307 | -7.36694 | 36997 ft | 435 kts | 198° |
| 2026-05-06 10:13 | 39.48446 | -7.38649 | 37006 ft | 435 kts | 198° |
| 2026-05-06 10:13 | 39.42586 | -7.40602 | 37006 ft | 435 kts | 198° |
| 2026-05-06 10:14 | 39.36732 | -7.42548 | 37000 ft | 435 kts | 198° |
| 2026-05-06 10:14 | 39.30876 | -7.44492 | 37000 ft | 434 kts | 198° |
| 2026-05-06 10:15 | 39.25022 | -7.46433 | 37004 ft | 434 kts | 198° |
| 2026-05-06 10:15 | 39.19179 | -7.48366 | 37003 ft | 434 kts | 198° |
| 2026-05-06 10:16 | 39.13334 | -7.50297 | 37002 ft | 433 kts | 198° |
| 2026-05-06 10:16 | 39.07393 | -7.51688 | 37012 ft | 437 kts | 188° |
| 2026-05-06 10:17 | 39.01325 | -7.52246 | 37008 ft | 437 kts | 188° |
| 2026-05-06 10:17 | 38.95261 | -7.52784 | 37005 ft | 437 kts | 188° |
| 2026-05-06 10:18 | 38.89205 | -7.53368 | 37001 ft | 436 kts | 188° |
| 2026-05-06 10:18 | 38.83166 | -7.53974 | 37001 ft | 435 kts | 189° |
| 2026-05-06 10:19 | 38.77133 | -7.54585 | 37001 ft | 435 kts | 189° |
| 2026-05-06 10:19 | 38.71109 | -7.55191 | 36994 ft | 434 kts | 189° |
| 2026-05-06 10:20 | 38.65092 | -7.55797 | 37001 ft | 434 kts | 189° |
| 2026-05-06 10:20 | 38.59080 | -7.56401 | 36997 ft | 433 kts | 189° |
| 2026-05-06 10:21 | 38.53077 | -7.57003 | 36995 ft | 432 kts | 189° |
| 2026-05-06 10:21 | 38.47081 | -7.57603 | 36996 ft | 432 kts | 189° |
| 2026-05-06 10:22 | 38.41090 | -7.58201 | 36988 ft | 432 kts | 189° |
| 2026-05-06 10:22 | 38.35109 | -7.58797 | 36991 ft | 431 kts | 189° |
| 2026-05-06 10:23 | 38.29135 | -7.59392 | 37002 ft | 430 kts | 189° |
| 2026-05-06 10:23 | 38.23164 | -7.59986 | 37010 ft | 430 kts | 189° |
| 2026-05-06 10:24 | 38.17188 | -7.60579 | 37015 ft | 431 kts | 189° |
| 2026-05-06 10:24 | 38.11203 | -7.61172 | 37009 ft | 432 kts | 188° |
| 2026-05-06 10:25 | 38.05343 | -7.62488 | 37028 ft | 426 kts | 199° |
| 2026-05-06 10:25 | 37.99617 | -7.64497 | 37022 ft | 427 kts | 199° |
| 2026-05-06 10:26 | 37.93869 | -7.66499 | 36976 ft | 429 kts | 199° |
| 2026-05-06 10:26 | 37.88107 | -7.68468 | 36993 ft | 429 kts | 199° |
| 2026-05-06 10:27 | 37.82334 | -7.70423 | 37001 ft | 430 kts | 199° |
| 2026-05-06 10:27 | 37.76556 | -7.72376 | 36996 ft | 430 kts | 199° |
| 2026-05-06 10:28 | 37.70815 | -7.74314 | 36996 ft | 430 kts | 199° |
| 2026-05-06 10:28 | 37.65043 | -7.76260 | 36998 ft | 429 kts | 199° |
| 2026-05-06 10:29 | 37.59281 | -7.78199 | 36999 ft | 428 kts | 199° |
| 2026-05-06 10:29 | 37.53537 | -7.80130 | 36996 ft | 427 kts | 199° |
| 2026-05-06 10:30 | 37.47807 | -7.82053 | 37000 ft | 426 kts | 199° |
| 2026-05-06 10:30 | 37.42076 | -7.83899 | 36992 ft | 426 kts | 195° |
| 2026-05-06 10:31 | 37.36115 | -7.84373 | 37007 ft | 431 kts | 186° |
| 2026-05-06 10:31 | 37.30124 | -7.84486 | 36997 ft | 430 kts | 186° |
| 2026-05-06 10:32 | 37.24152 | -7.84624 | 36993 ft | 429 kts | 186° |
| 2026-05-06 10:32 | 37.18189 | -7.84789 | 36986 ft | 428 kts | 186° |
| 2026-05-06 10:33 | 37.12246 | -7.84962 | 36989 ft | 427 kts | 186° |
| 2026-05-06 10:33 | 37.06309 | -7.85137 | 36996 ft | 426 kts | 186° |
| 2026-05-06 10:34 | 37.00377 | -7.85312 | 36993 ft | 427 kts | 186° |
| 2026-05-06 10:34 | 36.94443 | -7.85485 | 36989 ft | 426 kts | 187° |
| 2026-05-06 10:35 | 36.88514 | -7.85658 | 36992 ft | 426 kts | 187° |
| 2026-05-06 10:35 | 36.82586 | -7.85830 | 37000 ft | 426 kts | 187° |
| 2026-05-06 10:36 | 36.76658 | -7.86003 | 37003 ft | 426 kts | 187° |
| 2026-05-06 10:36 | 36.70727 | -7.86175 | 36991 ft | 426 kts | 187° |
| 2026-05-06 10:37 | 36.64802 | -7.86346 | 37007 ft | 426 kts | 187° |
| 2026-05-06 10:37 | 36.58913 | -7.86516 | 37000 ft | 426 kts | 187° |
| 2026-05-06 10:38 | 36.52987 | -7.86688 | 37012 ft | 426 kts | 187° |
| 2026-05-06 10:38 | 36.47058 | -7.86858 | 36991 ft | 426 kts | 187° |
| 2026-05-06 10:39 | 36.41139 | -7.87029 | 37002 ft | 426 kts | 187° |
| 2026-05-06 10:39 | 36.35222 | -7.87199 | 37007 ft | 425 kts | 187° |
| 2026-05-06 10:40 | 36.29306 | -7.87368 | 37008 ft | 425 kts | 187° |
| 2026-05-06 10:40 | 36.23400 | -7.87537 | 36987 ft | 424 kts | 187° |
| 2026-05-06 10:41 | 36.17502 | -7.87706 | 37006 ft | 424 kts | 187° |
| 2026-05-06 10:41 | 36.11612 | -7.87875 | 37009 ft | 423 kts | 187° |
| 2026-05-06 10:42 | 36.05727 | -7.88043 | 37007 ft | 423 kts | 187° |
| 2026-05-06 10:42 | 35.99846 | -7.88210 | 37009 ft | 423 kts | 187° |
| 2026-05-06 10:43 | 35.93958 | -7.88175 | 37008 ft | 425 kts | 182° |
| 2026-05-06 10:44 | 35.86090 | -7.87405 | 37008 ft | 426 kts | 181° |
| 2026-05-06 10:44 | 35.79220 | -7.86721 | 37005 ft | 426 kts | 182° |
| 2026-05-06 10:45 | 35.74271 | -7.86262 | 37007 ft | 426 kts | 182° |
| 2026-05-06 10:45 | 35.67409 | -7.85642 | 37008 ft | 425 kts | 182° |
| 2026-05-06 10:46 | 35.62461 | -7.85196 | 37008 ft | 425 kts | 182° |
| 2026-05-06 10:46 | 35.56554 | -7.84664 | 37008 ft | 426 kts | 182° |
| 2026-05-06 10:47 | 35.50688 | -7.84135 | 37011 ft | 426 kts | 182° |
| 2026-05-06 10:47 | 35.44785 | -7.83604 | 37002 ft | 425 kts | 182° |
| 2026-05-06 10:48 | 35.38883 | -7.83081 | 37009 ft | 425 kts | 182° |
| 2026-05-06 10:48 | 35.32981 | -7.82587 | 37008 ft | 425 kts | 182° |
| 2026-05-06 10:49 | 35.27082 | -7.82098 | 37011 ft | 425 kts | 182° |
| 2026-05-06 10:49 | 35.21180 | -7.81606 | 37005 ft | 425 kts | 182° |
| 2026-05-06 10:50 | 35.15294 | -7.81114 | 37004 ft | 425 kts | 182° |
| 2026-05-06 10:50 | 35.09380 | -7.80621 | 37009 ft | 425 kts | 182° |
| 2026-05-06 10:51 | 35.03475 | -7.80129 | 37006 ft | 425 kts | 182° |
| 2026-05-06 10:51 | 34.97575 | -7.79638 | 36995 ft | 425 kts | 182° |
| 2026-05-06 10:52 | 34.91679 | -7.79148 | 37002 ft | 425 kts | 182° |
| 2026-05-06 10:52 | 34.85781 | -7.78659 | 37009 ft | 425 kts | 182° |
| 2026-05-06 10:53 | 34.79880 | -7.78170 | 37008 ft | 425 kts | 182° |
| 2026-05-06 10:53 | 34.73978 | -7.77682 | 36975 ft | 425 kts | 183° |
| 2026-05-06 10:54 | 34.68125 | -7.77251 | 36999 ft | 424 kts | 183° |
| 2026-05-06 10:54 | 34.62231 | -7.76847 | 37009 ft | 424 kts | 183° |
| 2026-05-06 10:55 | 34.56336 | -7.76439 | 37010 ft | 424 kts | 183° |
| 2026-05-06 10:55 | 34.50439 | -7.76025 | 37008 ft | 425 kts | 183° |
| 2026-05-06 10:56 | 34.44540 | -7.75610 | 37007 ft | 424 kts | 183° |
| 2026-05-06 10:56 | 34.38644 | -7.75196 | 37005 ft | 424 kts | 183° |
| 2026-05-06 10:57 | 34.32747 | -7.74783 | 37009 ft | 425 kts | 183° |
| 2026-05-06 10:57 | 34.26844 | -7.74370 | 37008 ft | 425 kts | 183° |
| 2026-05-06 10:58 | 34.20939 | -7.73957 | 36993 ft | 425 kts | 183° |
| 2026-05-06 10:58 | 34.15039 | -7.73501 | 37005 ft | 426 kts | 182° |
| 2026-05-06 10:59 | 34.09129 | -7.72943 | 37009 ft | 426 kts | 182° |
| 2026-05-06 10:59 | 34.03220 | -7.72381 | 37007 ft | 426 kts | 182° |
| 2026-05-06 11:00 | 33.97309 | -7.71831 | 36973 ft | 426 kts | 182° |
| 2026-05-06 11:00 | 33.91403 | -7.71288 | 37002 ft | 425 kts | 182° |
| 2026-05-06 11:01 | 33.85499 | -7.70748 | 37007 ft | 425 kts | 182° |
| 2026-05-06 11:01 | 33.79595 | -7.70208 | 37000 ft | 426 kts | 182° |
| 2026-05-06 11:02 | 33.73726 | -7.69671 | 36998 ft | 426 kts | 182° |
| 2026-05-06 11:02 | 33.67779 | -7.69128 | 36990 ft | 425 kts | 183° |
| 2026-05-06 11:03 | 33.61914 | -7.68593 | 36994 ft | 426 kts | 183° |
| 2026-05-06 11:03 | 33.56008 | -7.68056 | 36996 ft | 426 kts | 183° |
| 2026-05-06 11:04 | 33.50110 | -7.66973 | 36980 ft | 439 kts | 169° |
| 2026-05-06 11:04 | 33.44300 | -7.64484 | 36994 ft | 441 kts | 168° |
| 2026-05-06 11:05 | 33.38582 | -7.61994 | 37013 ft | 440 kts | 168° |
| 2026-05-06 11:05 | 33.32822 | -7.59539 | 37018 ft | 439 kts | 169° |
| 2026-05-06 11:06 | 33.27070 | -7.57112 | 37020 ft | 438 kts | 169° |
| 2026-05-06 11:06 | 33.21321 | -7.54691 | 37019 ft | 437 kts | 169° |
| 2026-05-06 11:07 | 33.15587 | -7.52277 | 37000 ft | 437 kts | 169° |
| 2026-05-06 11:07 | 33.09918 | -7.50017 | 37831 ft | 412 kts | 174° |
| 2026-05-06 11:07 | 33.07123 | -7.49195 | 37672 ft | 418 kts | 176° |
| 2026-05-06 11:08 | 33.04271 | -7.48448 | 37628 ft | 422 kts | 176° |
| 2026-05-06 11:08 | 33.01383 | -7.47696 | 37526 ft | 428 kts | 176° |
| 2026-05-06 11:08 | 32.98462 | -7.46914 | 37419 ft | 432 kts | 175° |
| 2026-05-06 11:08 | 32.95524 | -7.46102 | 37317 ft | 435 kts | 175° |
| 2026-05-06 11:09 | 32.92565 | -7.45273 | 37050 ft | 437 kts | 176° |
| 2026-05-06 11:09 | 32.86735 | -7.43628 | 36466 ft | 429 kts | 176° |
| 2026-05-06 11:09 | 32.83855 | -7.42807 | 36170 ft | 421 kts | 176° |
| 2026-05-06 11:10 | 32.81014 | -7.41995 | 35715 ft | 419 kts | 176° |
| 2026-05-06 11:10 | 32.78195 | -7.41192 | 35329 ft | 415 kts | 176° |
| 2026-05-06 11:10 | 32.75402 | -7.40397 | 34921 ft | 411 kts | 176° |
| 2026-05-06 11:10 | 32.72634 | -7.39611 | 34530 ft | 408 kts | 176° |
| 2026-05-06 11:11 | 32.69921 | -7.38842 | 34143 ft | 405 kts | 176° |
| 2026-05-06 11:11 | 32.67191 | -7.38069 | 33670 ft | 402 kts | 176° |
| 2026-05-06 11:11 | 32.64491 | -7.37301 | 33312 ft | 396 kts | 178° |
| 2026-05-06 11:11 | 32.61826 | -7.36545 | 32900 ft | 392 kts | 178° |
| 2026-05-06 11:12 | 32.59197 | -7.35807 | 32642 ft | 385 kts | 178° |
| 2026-05-06 11:12 | 32.56614 | -7.35086 | 32365 ft | 378 kts | 178° |
| 2026-05-06 11:12 | 32.54073 | -7.34381 | 32107 ft | 373 kts | 178° |
| 2026-05-06 11:12 | 32.51549 | -7.33684 | 31831 ft | 370 kts | 178° |
| 2026-05-06 11:13 | 32.49057 | -7.32996 | 31482 ft | 366 kts | 178° |
| 2026-05-06 11:13 | 32.46582 | -7.32313 | 31135 ft | 364 kts | 177° |
| 2026-05-06 11:13 | 32.44123 | -7.31634 | 30783 ft | 362 kts | 177° |
| 2026-05-06 11:13 | 32.41672 | -7.31053 | 30273 ft | 356 kts | 186° |
| 2026-05-06 11:14 | 32.39281 | -7.31435 | 29364 ft | 341 kts | 210° |
| 2026-05-06 11:14 | 32.37235 | -7.32726 | 28994 ft | 328 kts | 220° |
| 2026-05-06 11:14 | 32.35401 | -7.34302 | 28501 ft | 325 kts | 222° |
| 2026-05-06 11:14 | 32.33617 | -7.35952 | 27937 ft | 326 kts | 223° |
| 2026-05-06 11:15 | 32.31842 | -7.37619 | 27412 ft | 326 kts | 223° |
| 2026-05-06 11:15 | 32.30062 | -7.39285 | 26969 ft | 325 kts | 223° |
| 2026-05-06 11:15 | 32.28287 | -7.40934 | 26577 ft | 323 kts | 222° |
| 2026-05-06 11:15 | 32.26523 | -7.42564 | 26198 ft | 321 kts | 222° |
| 2026-05-06 11:16 | 32.24766 | -7.44179 | 25826 ft | 319 kts | 222° |
| 2026-05-06 11:16 | 32.23019 | -7.45781 | 25472 ft | 317 kts | 222° |
| 2026-05-06 11:16 | 32.21282 | -7.47370 | 25114 ft | 315 kts | 222° |
| 2026-05-06 11:16 | 32.19553 | -7.48949 | 24759 ft | 313 kts | 222° |
| 2026-05-06 11:17 | 32.17832 | -7.50520 | 24403 ft | 312 kts | 222° |
| 2026-05-06 11:17 | 32.16115 | -7.52085 | 24035 ft | 312 kts | 221° |
| 2026-05-06 11:17 | 32.14401 | -7.53647 | 23675 ft | 311 kts | 221° |
| 2026-05-06 11:17 | 32.12686 | -7.55209 | 23281 ft | 311 kts | 221° |
| 2026-05-06 11:18 | 32.10975 | -7.56766 | 22882 ft | 310 kts | 221° |
| 2026-05-06 11:18 | 32.09276 | -7.58311 | 22528 ft | 307 kts | 221° |
| 2026-05-06 11:18 | 32.07588 | -7.59845 | 22186 ft | 305 kts | 221° |
| 2026-05-06 11:18 | 32.05913 | -7.61367 | 21834 ft | 303 kts | 221° |
| 2026-05-06 11:19 | 32.04247 | -7.62880 | 21491 ft | 301 kts | 221° |
| 2026-05-06 11:19 | 32.02593 | -7.64382 | 21154 ft | 300 kts | 221° |
| 2026-05-06 11:19 | 32.00946 | -7.65876 | 20823 ft | 298 kts | 221° |
| 2026-05-06 11:19 | 31.99305 | -7.67366 | 20491 ft | 298 kts | 221° |
| 2026-05-06 11:20 | 31.97657 | -7.68860 | 20163 ft | 300 kts | 221° |
| 2026-05-06 11:20 | 31.96017 | -7.70348 | 19833 ft | 305 kts | 221° |
| 2026-05-06 11:20 | 31.94315 | -7.71892 | 19477 ft | 313 kts | 221° |
| 2026-05-06 11:20 | 31.92582 | -7.73462 | 19107 ft | 315 kts | 221° |
| 2026-05-06 11:21 | 31.90847 | -7.75030 | 18761 ft | 314 kts | 221° |
| 2026-05-06 11:21 | 31.89116 | -7.76595 | 18404 ft | 313 kts | 220° |
| 2026-05-06 11:21 | 31.87390 | -7.78154 | 18014 ft | 313 kts | 220° |
| 2026-05-06 11:21 | 31.85686 | -7.79729 | 17640 ft | 310 kts | 226° |
| 2026-05-06 11:22 | 31.84444 | -7.81740 | 17276 ft | 303 kts | 246° |
| 2026-05-06 11:22 | 31.83817 | -7.84127 | 16577 ft | 311 kts | 263° |
| 2026-05-06 11:22 | 31.83670 | -7.86661 | 16132 ft | 312 kts | 268° |
| 2026-05-06 11:22 | 31.83665 | -7.89193 | 15803 ft | 309 kts | 269° |
| 2026-05-06 11:23 | 31.83691 | -7.91712 | 15459 ft | 307 kts | 270° |
| 2026-05-06 11:23 | 31.83717 | -7.94215 | 15121 ft | 305 kts | 269° |
| 2026-05-06 11:23 | 31.83733 | -7.96702 | 14795 ft | 303 kts | 269° |
| 2026-05-06 11:23 | 31.83742 | -7.99172 | 14470 ft | 301 kts | 269° |
| 2026-05-06 11:24 | 31.83744 | -8.01628 | 14149 ft | 300 kts | 269° |
| 2026-05-06 11:24 | 31.83743 | -8.04070 | 13827 ft | 298 kts | 269° |
| 2026-05-06 11:24 | 31.83738 | -8.06501 | 13479 ft | 297 kts | 269° |
| 2026-05-06 11:24 | 31.83732 | -8.08922 | 13132 ft | 295 kts | 269° |
| 2026-05-06 11:25 | 31.83725 | -8.11322 | 12798 ft | 293 kts | 269° |
| 2026-05-06 11:25 | 31.83717 | -8.13703 | 12480 ft | 290 kts | 269° |
| 2026-05-06 11:25 | 31.83708 | -8.16070 | 12165 ft | 288 kts | 269° |
| 2026-05-06 11:25 | 31.83699 | -8.18424 | 11846 ft | 287 kts | 269° |
| 2026-05-06 11:26 | 31.83689 | -8.20761 | 11523 ft | 285 kts | 269° |
| 2026-05-06 11:26 | 31.83679 | -8.23057 | 11221 ft | 284 kts | 269° |
| 2026-05-06 11:26 | 31.83668 | -8.25374 | 10907 ft | 283 kts | 269° |
| 2026-05-06 11:26 | 31.83658 | -8.27678 | 10605 ft | 281 kts | 269° |
| 2026-05-06 11:27 | 31.83647 | -8.29974 | 10298 ft | 280 kts | 268° |
| 2026-05-06 11:27 | 31.83636 | -8.32236 | 10176 ft | 272 kts | 268° |
| 2026-05-06 11:27 | 31.83624 | -8.34439 | 10036 ft | 266 kts | 268° |
| 2026-05-06 11:27 | 31.83598 | -8.36599 | 9785 ft | 264 kts | 264° |
| 2026-05-06 11:28 | 31.83044 | -8.38632 | 9478 ft | 263 kts | 237° |
| 2026-05-06 11:28 | 31.81812 | -8.40197 | 9257 ft | 262 kts | 218° |
| 2026-05-06 11:28 | 31.80200 | -8.41201 | 8995 ft | 262 kts | 206° |
| 2026-05-06 11:28 | 31.78529 | -8.42045 | 8716 ft | 261 kts | 206° |
| 2026-05-06 11:29 | 31.76865 | -8.42877 | 8447 ft | 260 kts | 206° |
| 2026-05-06 11:29 | 31.75208 | -8.43715 | 8179 ft | 259 kts | 206° |
| 2026-05-06 11:29 | 31.73561 | -8.44554 | 7908 ft | 257 kts | 206° |
| 2026-05-06 11:29 | 31.71924 | -8.45394 | 7633 ft | 257 kts | 206° |
| 2026-05-06 11:30 | 31.70290 | -8.46233 | 7358 ft | 256 kts | 206° |
| 2026-05-06 11:30 | 31.68649 | -8.47036 | 7077 ft | 257 kts | 199° |
| 2026-05-06 11:30 | 31.66864 | -8.47114 | 6778 ft | 263 kts | 168° |
| 2026-05-06 11:30 | 31.65230 | -8.46147 | 6526 ft | 269 kts | 141° |
| 2026-05-06 11:31 | 31.64142 | -8.44364 | 6247 ft | 273 kts | 113° |
| 2026-05-06 11:31 | 31.63722 | -8.42189 | 5981 ft | 274 kts | 98° |
| 2026-05-06 11:31 | 31.63547 | -8.39971 | 5705 ft | 273 kts | 95° |
| 2026-05-06 11:31 | 31.63414 | -8.37751 | 5446 ft | 273 kts | 94° |
| 2026-05-06 11:32 | 31.63278 | -8.35558 | 5321 ft | 263 kts | 95° |
| 2026-05-06 11:32 | 31.63216 | -8.33473 | 5206 ft | 248 kts | 91° |
| 2026-05-06 11:32 | 31.63173 | -8.31524 | 5105 ft | 237 kts | 92° |
| 2026-05-06 11:32 | 31.63047 | -8.29650 | 5018 ft | 223 kts | 98° |
| 2026-05-06 11:33 | 31.62857 | -8.27876 | 4869 ft | 216 kts | 98° |
| 2026-05-06 11:33 | 31.62689 | -8.26143 | 4644 ft | 212 kts | 97° |
| 2026-05-06 11:33 | 31.62532 | -8.24430 | 4359 ft | 210 kts | 96° |
| 2026-05-06 11:33 | 31.62383 | -8.22751 | 4133 ft | 204 kts | 96° |
| 2026-05-06 11:34 | 31.62237 | -8.21106 | 3898 ft | 201 kts | 96° |
| 2026-05-06 11:34 | 31.62092 | -8.19486 | 3670 ft | 198 kts | 95° |
| 2026-05-06 11:34 | 31.61952 | -8.17922 | 3490 ft | 187 kts | 95° |
| 2026-05-06 11:34 | 31.61816 | -8.16436 | 3248 ft | 182 kts | 94° |
| 2026-05-06 11:35 | 31.61670 | -8.15002 | 3060 ft | 167 kts | 96° |
| 2026-05-06 11:35 | 31.61576 | -8.14139 | 2987 ft | 159 kts | 94° |
| 2026-05-06 11:35 | 31.61451 | -8.12861 | 2870 ft | 160 kts | 96° |
| 2026-05-06 11:35 | 31.61355 | -8.11543 | 2688 ft | 163 kts | 92° |
| 2026-05-06 11:36 | 31.61273 | -8.10216 | 2433 ft | 161 kts | 94° |
| 2026-05-06 11:36 | 31.61156 | -8.08938 | 2209 ft | 153 kts | 95° |
| 2026-05-06 11:36 | 31.61045 | -8.07681 | 1980 ft | 157 kts | 95° |
| 2026-05-06 11:36 | 31.60937 | -8.06401 | 1762 ft | 158 kts | 96° |
| 2026-05-06 11:37 | 31.60823 | -8.05141 | 1553 ft | 151 kts | 95° |
| 2026-05-06 11:37 | 31.60723 | -8.04018 | 1538 ft | 124 kts | 96° |
| 2026-05-06 11:37 | 31.60649 | -8.03157 | 1536 ft | 88 kts | 96° |
| 2026-05-06 11:37 | 31.60610 | -8.02723 | 1548 ft | 30 kts | 96° |
| 2026-05-06 11:38 | 31.60576 | -8.02637 | 1548 ft | 7 kts | 169° |
| 2026-05-06 11:38 | 31.60525 | -8.02642 | 1541 ft | 7 kts | 186° |
| 2026-05-06 11:38 | 31.60475 | -8.02646 | 1548 ft | 7 kts | 184° |
| 2026-05-06 11:38 | 31.60430 | -8.02634 | 1548 ft | 7 kts | 139° |
| 2026-05-06 11:39 | 31.60424 | -8.02580 | 1548 ft | 7 kts | 93° |
| 2026-05-06 11:39 | 31.60397 | -8.02538 | 1545 ft | 8 kts | 170° |
| 2026-05-06 11:39 | 31.60338 | -8.02542 | 1544 ft | 9 kts | 186° |
| 2026-05-06 11:39 | 31.60307 | -8.02546 | 1546 ft | 2 kts | 186° |
| 2026-05-06 11:40 | 31.60306 | -8.02546 | 1545 ft | 0 kts | 186° |